Time;durP1;ratioP1;P1;durP2;ratioP2;P2;SDS_P1;SDS_P2;PMS_P1;PMS_P2;Temp;Humidity;BMP_temperature;BMP_pressure;BME280_temperature;BME280_humidity;BME280_pressure;Samples;Min_cycle;Max_cycle;Signal;HPM_P1;HPM_P2
2022/02/21 00:01:01;;;;;;;3.80;0.90;;;;;;;8.39;79.42;97314.13;5090231;28;20097;-62
2022/02/21 00:03:30;;;;;;;4.18;0.93;;;;;;;8.38;78.94;97305.44;5089897;28;20048;-63
2022/02/21 00:05:56;;;;;;;4.13;0.82;;;;;;;8.39;79.27;97327.22;5090407;28;20067;-60
2022/02/21 00:08:23;;;;;;;2.65;0.93;;;;;;;8.36;78.84;97315.22;5090373;28;20052;-61
2022/02/21 00:10:50;;;;;;;2.50;0.70;;;;;;;8.35;78.77;97301.28;5090497;28;20068;-62
2022/02/21 00:13:17;;;;;;;7.30;1.35;;;;;;;8.34;78.72;97344.19;5090447;28;20093;-60
2022/02/21 00:15:44;;;;;;;5.22;1.00;;;;;;;8.32;78.38;97346.13;5089378;28;20052;-61
2022/02/21 00:18:10;;;;;;;5.05;1.48;;;;;;;8.30;78.68;97342.78;5088978;28;20109;-60
2022/02/21 00:20:37;;;;;;;4.18;0.90;;;;;;;8.29;78.28;97371.75;5090016;28;20481;-61
2022/02/21 00:23:03;;;;;;;5.20;1.10;;;;;;;8.24;78.35;97353.81;5090063;28;20040;-60
2022/02/21 00:25:30;;;;;;;4.40;1.00;;;;;;;8.21;78.16;97391.59;5090314;28;20044;-61
2022/02/21 00:27:57;;;;;;;2.33;1.10;;;;;;;8.21;78.59;97390.75;5090106;28;20160;-61
2022/02/21 00:30:23;;;;;;;3.10;0.80;;;;;;;8.16;78.38;97399.03;5089874;28;20557;-60
2022/02/21 00:32:50;;;;;;;2.92;0.70;;;;;;;8.14;78.06;97410.56;5089836;28;20044;-63
2022/02/21 00:35:17;;;;;;;3.10;0.70;;;;;;;8.13;77.88;97417.63;5089178;28;20074;-61
2022/02/21 00:37:44;;;;;;;4.82;1.20;;;;;;;8.12;78.14;97426.47;5089991;28;20489;-63
2022/02/21 00:40:11;;;;;;;5.43;0.70;;;;;;;8.07;78.13;97429.44;5090080;28;20105;-61
2022/02/21 00:42:37;;;;;;;1.98;0.65;;;;;;;8.04;78.18;97418.41;5089635;28;20047;-62
2022/02/21 00:45:07;;;;;;;4.82;1.23;;;;;;;8.02;78.16;97417.69;5090174;28;20056;-61
2022/02/21 00:47:34;;;;;;;10.55;1.35;;;;;;;8.00;78.17;97415.19;5090160;28;20066;-60
2022/02/21 00:50:01;;;;;;;4.78;1.40;;;;;;;7.99;78.27;97423.22;5089697;28;20086;-61
2022/02/21 00:52:28;;;;;;;6.82;1.65;;;;;;;7.99;78.55;97434.50;5089933;28;20052;-61
2022/02/21 00:54:54;;;;;;;6.63;1.50;;;;;;;7.95;78.42;97436.56;5088551;28;20055;-63
2022/02/21 00:57:21;;;;;;;6.63;1.38;;;;;;;7.97;78.53;97464.41;5089944;28;20048;-60
2022/02/21 00:59:48;;;;;;;5.55;1.40;;;;;;;7.95;78.07;97491.56;5089761;28;20833;-60
2022/02/21 01:02:15;;;;;;;1.45;0.80;;;;;;;7.93;77.44;97511.81;5089900;28;20080;-61
2022/02/21 01:04:42;;;;;;;3.70;0.88;;;;;;;7.88;76.33;97498.25;5089347;28;20125;-62
2022/02/21 01:07:09;;;;;;;3.20;0.90;;;;;;;7.80;75.55;97503.31;5089921;28;20549;-61
2022/02/21 01:09:35;;;;;;;5.47;1.13;;;;;;;7.73;75.89;97510.03;5090017;28;20408;-61
2022/02/21 01:12:03;;;;;;;6.65;1.42;;;;;;;7.64;75.76;97516.81;5089847;28;20048;-61
2022/02/21 01:14:30;;;;;;;4.85;1.42;;;;;;;7.54;76.12;97530.66;5089947;28;20044;-62
2022/02/21 01:16:57;;;;;;;6.45;1.02;;;;;;;7.46;76.33;97517.34;5089982;28;20454;-63
2022/02/21 01:19:23;;;;;;;8.30;1.25;;;;;;;7.40;76.63;97536.19;5089873;28;20052;-61
2022/02/21 01:21:50;;;;;;;6.97;1.65;;;;;;;7.34;76.77;97531.41;5090030;28;20063;-61
2022/02/21 01:24:17;;;;;;;6.28;1.27;;;;;;;7.29;77.41;97537.03;5088910;28;20051;-62
2022/02/21 01:26:44;;;;;;;9.73;2.28;;;;;;;7.26;77.59;97532.84;5090710;28;20083;-61
2022/02/21 01:29:10;;;;;;;7.50;1.58;;;;;;;7.24;78.14;97537.38;5092681;28;20056;-62
2022/02/21 01:31:37;;;;;;;7.72;1.50;;;;;;;7.23;77.74;97542.75;5093750;28;20056;-61
2022/02/21 01:34:03;;;;;;;7.80;1.55;;;;;;;7.22;78.10;97541.09;5093593;28;20048;-62
2022/02/21 01:36:30;;;;;;;10.57;1.70;;;;;;;7.21;77.64;97549.88;5073360;28;20055;-62
2022/02/21 01:38:57;;;;;;;9.00;1.85;;;;;;;7.21;77.76;97565.59;5054814;28;20044;-60
2022/02/21 01:41:23;;;;;;;10.30;2.10;;;;;;;7.19;77.89;97557.00;5072928;28;20552;-62
2022/02/21 01:44:01;;;;;;;13.15;2.42;;;;;;;7.16;76.50;97547.63;5073309;28;20056;-61
2022/02/21 01:46:28;;;;;;;11.85;2.55;;;;;;;7.21;77.93;97544.66;5108868;28;20048;-60
2022/02/21 01:48:55;;;;;;;11.65;2.47;;;;;;;7.19;77.45;97555.25;5093283;28;20048;-60
2022/02/21 01:51:22;;;;;;;15.00;2.35;;;;;;;7.17;76.91;97564.97;5093269;28;20101;-62
2022/02/21 01:53:48;;;;;;;8.30;1.67;;;;;;;7.19;77.30;97564.88;5092251;28;20059;-60
2022/02/21 01:56:15;;;;;;;7.65;1.85;;;;;;;7.17;77.27;97578.91;5091848;28;20052;-61
2022/02/21 01:58:42;;;;;;;9.57;1.35;;;;;;;7.16;77.46;97590.34;5092970;28;20056;-63
2022/02/21 02:01:08;;;;;;;11.52;1.88;;;;;;;7.13;77.40;97595.78;5091544;28;20546;-60
2022/02/21 02:03:35;;;;;;;4.45;1.98;;;;;;;7.12;77.12;97591.53;5092791;28;20044;-61
2022/02/21 02:06:02;;;;;;;8.80;2.20;;;;;;;7.10;76.89;97585.56;5091394;28;20048;-60
2022/02/21 02:08:28;;;;;;;8.88;2.05;;;;;;;7.06;77.09;97597.22;5092951;28;20051;-61
2022/02/21 02:10:57;;;;;;;6.65;1.73;;;;;;;7.01;76.64;97594.97;5092740;28;20044;-61
2022/02/21 02:13:24;;;;;;;9.90;2.25;;;;;;;6.99;76.54;97590.81;5092837;28;20055;-60
2022/02/21 02:15:52;;;;;;;14.38;2.47;;;;;;;6.95;76.36;97597.22;5090950;28;20052;-62
2022/02/21 02:18:19;;;;;;;10.82;1.77;;;;;;;6.90;76.87;97590.56;5092497;28;20094;-62
2022/02/21 02:20:45;;;;;;;17.60;2.20;;;;;;;6.88;76.96;97587.22;5092193;28;20060;-61
2022/02/21 02:23:12;;;;;;;11.38;2.45;;;;;;;6.86;76.67;97589.13;5092207;28;20059;-61
2022/02/21 02:25:39;;;;;;;13.75;2.75;;;;;;;6.84;76.82;97590.22;5092165;28;20084;-62
2022/02/21 02:28:06;;;;;;;14.32;2.45;;;;;;;6.83;77.04;97588.53;5092522;28;20081;-60
2022/02/21 02:30:33;;;;;;;17.73;2.80;;;;;;;6.80;77.12;97600.06;5092239;28;20055;-62
2022/02/21 02:33:00;;;;;;;12.18;2.72;;;;;;;6.80;77.05;97601.84;5092546;28;20048;-61
2022/02/21 02:35:27;;;;;;;12.02;2.80;;;;;;;6.81;77.56;97612.19;5090870;28;20101;-61
2022/02/21 02:37:54;;;;;;;18.73;2.95;;;;;;;6.81;77.02;97633.13;5090372;28;20105;-60
2022/02/21 02:40:21;;;;;;;10.13;2.67;;;;;;;6.80;76.81;97610.50;5092154;28;20056;-61
2022/02/21 02:42:47;;;;;;;20.10;4.47;;;;;;;6.80;75.72;97601.84;5092309;28;20052;-61
2022/02/21 02:45:14;;;;;;;14.35;2.63;;;;;;;6.78;76.41;97621.09;5091787;28;20097;-60
2022/02/21 02:47:40;;;;;;;18.08;3.13;;;;;;;6.77;75.86;97614.19;5092080;28;20055;-61
2022/02/21 02:50:08;;;;;;;16.05;3.92;;;;;;;6.80;76.35;97643.69;5091498;28;20052;-63
2022/02/21 02:52:35;;;;;;;15.05;3.22;;;;;;;6.78;75.93;97628.94;5107561;28;20047;-60
2022/02/21 02:55:02;;;;;;;11.07;2.80;;;;;;;6.78;75.67;97633.34;5090622;28;20044;-62
2022/02/21 02:57:29;;;;;;;20.08;2.95;;;;;;;6.77;75.11;97634.28;5090695;28;20560;-62
2022/02/21 02:59:57;;;;;;;13.18;2.35;;;;;;;6.76;75.40;97640.44;5092151;28;20059;-60
2022/02/21 03:02:24;;;;;;;15.50;3.42;;;;;;;6.73;74.74;97644.13;5091601;28;20063;-61
2022/02/21 03:04:51;;;;;;;14.60;3.10;;;;;;;6.72;74.46;97639.88;5091039;28;20051;-61
2022/02/21 03:07:17;;;;;;;14.68;2.97;;;;;;;6.70;74.49;97640.94;5090659;28;20056;-63
2022/02/21 03:09:44;;;;;;;13.18;2.53;;;;;;;6.68;74.74;97651.50;5090546;28;20055;-61
2022/02/21 03:12:11;;;;;;;17.77;3.33;;;;;;;6.67;75.04;97646.38;5091547;28;20132;-60
2022/02/21 03:14:37;;;;;;;14.88;2.90;;;;;;;6.64;74.91;97669.22;5091753;28;20630;-62
2022/02/21 03:17:04;;;;;;;18.27;3.38;;;;;;;6.61;74.32;97639.81;5090437;28;20060;-61
2022/02/21 03:19:30;;;;;;;10.15;2.03;;;;;;;6.57;74.00;97644.47;5091292;28;20051;-61
2022/02/21 03:21:59;;;;;;;17.10;3.08;;;;;;;6.53;73.74;97658.72;5091675;28;20043;-61
2022/02/21 03:24:25;;;;;;;13.90;2.83;;;;;;;6.46;73.51;97660.94;5091218;28;20102;-61
2022/02/21 03:26:52;;;;;;;16.80;2.80;;;;;;;6.41;73.94;97655.22;5091456;28;20549;-61
2022/02/21 03:29:19;;;;;;;11.73;2.58;;;;;;;6.34;74.22;97652.22;5091341;28;20048;-61
2022/02/21 03:31:45;;;;;;;15.90;3.05;;;;;;;6.29;74.27;97664.81;5091356;28;20117;-62
2022/02/21 03:34:12;;;;;;;14.00;3.00;;;;;;;6.24;74.28;97672.13;5091123;28;20458;-62
2022/02/21 03:36:39;;;;;;;16.63;3.03;;;;;;;6.20;74.32;97689.00;5090157;28;20043;-60
2022/02/21 03:39:05;;;;;;;11.20;2.70;;;;;;;6.17;74.98;97689.22;5089969;28;20052;-66
2022/02/21 03:41:34;;;;;;;16.33;3.10;;;;;;;6.15;75.13;97691.09;5090695;28;20040;-63
2022/02/21 03:44:03;;;;;;;10.93;2.40;;;;;;;6.12;74.98;97699.97;5090940;28;20051;-61
2022/02/21 03:46:30;;;;;;;15.93;2.67;;;;;;;6.11;75.46;97693.94;5090287;28;20044;-60
2022/02/21 03:48:57;;;;;;;19.27;3.20;;;;;;;6.11;75.34;97695.72;5089401;28;20044;-60
2022/02/21 03:51:24;;;;;;;21.88;3.80;;;;;;;6.10;75.50;97704.50;5090439;28;20055;-60
2022/02/21 03:53:50;;;;;;;15.38;2.88;;;;;;;6.10;75.51;97707.09;5090925;28;20125;-62
2022/02/21 03:56:17;;;;;;;11.23;2.88;;;;;;;6.07;75.28;97705.56;5089312;28;20055;-61
2022/02/21 03:58:45;;;;;;;12.10;2.33;;;;;;;6.05;74.52;97710.03;5090746;28;20044;-60
2022/02/21 04:01:12;;;;;;;13.65;2.28;;;;;;;6.02;74.73;97707.59;5090935;28;20108;-61
2022/02/21 04:03:39;;;;;;;9.02;2.10;;;;;;;6.04;75.03;97711.00;5090560;28;20048;-61
2022/02/21 04:06:06;;;;;;;17.15;2.22;;;;;;;6.03;75.02;97718.91;5089320;28;20051;-61
2022/02/21 04:08:33;;;;;;;13.40;2.20;;;;;;;6.03;74.95;97717.16;5070807;28;20059;-62
2022/02/21 04:10:59;;;;;;;13.93;2.20;;;;;;;6.04;75.16;97725.81;5085788;28;20055;-62
2022/02/21 04:13:26;;;;;;;12.00;2.45;;;;;;;6.04;75.01;97718.81;5089841;28;20051;-61
2022/02/21 04:15:52;;;;;;;13.98;3.10;;;;;;;6.04;74.99;97726.66;5090507;28;20052;-61
2022/02/21 04:18:19;;;;;;;13.85;2.60;;;;;;;6.04;74.57;97726.66;5090870;28;20056;-61
2022/02/21 04:20:46;;;;;;;11.60;2.08;;;;;;;6.04;75.04;97731.88;5090923;28;20066;-61
2022/02/21 04:23:15;;;;;;;12.63;2.53;;;;;;;6.03;74.13;97748.50;5090790;28;20040;-62
2022/02/21 04:25:42;;;;;;;9.40;1.92;;;;;;;6.00;74.54;97728.63;5089218;28;20105;-60
2022/02/21 04:28:08;;;;;;;7.18;1.63;;;;;;;5.99;74.34;97733.97;5090834;28;20059;-61
2022/02/21 04:30:35;;;;;;;7.97;2.15;;;;;;;5.95;74.40;97743.78;5090308;28;20044;-65
2022/02/21 04:33:02;;;;;;;9.70;2.10;;;;;;;5.90;74.05;97747.66;5090703;28;20048;-61
2022/02/21 04:35:28;;;;;;;11.15;1.80;;;;;;;5.82;73.81;97735.13;5090068;28;20052;-61
2022/02/21 04:37:55;;;;;;;10.35;2.33;;;;;;;5.76;74.27;97756.47;5089188;28;20059;-62
2022/02/21 04:40:25;;;;;;;5.35;1.52;;;;;;;5.70;74.44;97749.88;5088898;28;20055;-61
2022/02/21 04:42:55;;;;;;;9.60;2.05;;;;;;;5.67;75.20;97750.94;5088933;28;20048;-61
2022/02/21 04:45:27;;;;;;;9.93;1.90;;;;;;;5.65;75.37;97759.81;5088752;28;20591;-61
2022/02/21 04:47:54;;;;;;;8.43;2.00;;;;;;;5.64;75.49;97760.75;5089176;28;20058;-61
2022/02/21 04:50:21;;;;;;;9.50;2.30;;;;;;;5.62;75.69;97766.09;5089915;28;20105;-62
2022/02/21 04:52:47;;;;;;;8.68;2.08;;;;;;;5.59;75.42;97772.34;5088756;28;20054;-63
2022/02/21 04:55:14;;;;;;;10.40;2.05;;;;;;;5.58;75.61;97770.66;5089735;28;20044;-61
2022/02/21 04:57:42;;;;;;;11.55;2.47;;;;;;;5.55;75.50;97757.00;5090314;28;20143;-61
2022/02/21 05:00:14;;;;;;;15.05;2.20;;;;;;;5.52;75.36;97775.47;5088904;28;20055;-61
2022/02/21 05:02:41;;;;;;;11.10;2.13;;;;;;;5.50;75.74;97759.94;5092747;28;20103;-61
2022/02/21 05:05:11;;;;;;;7.57;2.15;;;;;;;5.49;75.76;97760.84;5092395;28;20047;-60
2022/02/21 05:07:43;;;;;;;10.05;1.90;;;;;;;5.46;75.55;97769.72;5092881;28;20059;-60
2022/02/21 05:10:11;;;;;;;6.13;1.27;;;;;;;5.46;75.64;97761.09;5092518;28;20396;-63
2022/02/21 05:12:38;;;;;;;12.68;2.30;;;;;;;5.45;76.01;97765.47;5093922;28;20078;-62
2022/02/21 05:15:07;;;;;;;14.25;2.13;;;;;;;5.44;76.09;97763.78;5093368;28;20051;-62
2022/02/21 05:17:33;;;;;;;12.07;3.28;;;;;;;5.42;75.67;97760.44;5092219;28;20557;-62
2022/02/21 05:20:01;;;;;;;9.18;1.75;;;;;;;5.41;75.78;97760.53;5092400;28;20450;-63
2022/02/21 05:22:28;;;;;;;10.98;2.60;;;;;;;5.39;75.62;97765.88;5092518;28;20040;-60
2022/02/21 05:24:55;;;;;;;18.15;2.40;;;;;;;5.37;75.68;97762.53;5093504;28;20056;-60
2022/02/21 05:27:21;;;;;;;12.63;2.53;;;;;;;5.35;75.52;97769.66;5092229;28;20056;-60
2022/02/21 05:29:48;;;;;;;12.35;2.15;;;;;;;5.34;75.85;97762.72;5093535;28;20547;-60
2022/02/21 05:32:18;;;;;;;13.63;2.53;;;;;;;5.32;74.98;97770.69;5092820;28;20121;-61
2022/02/21 05:34:45;;;;;;;12.45;2.08;;;;;;;5.33;75.75;97763.69;5091974;28;20514;-61
2022/02/21 05:37:12;;;;;;;12.93;2.55;;;;;;;5.32;75.52;97759.41;5092512;28;20484;-60
2022/02/21 05:39:39;;;;;;;22.52;2.95;;;;;;;5.29;75.19;97759.59;5092161;28;20123;-60
2022/02/21 05:42:05;;;;;;;14.95;2.63;;;;;;;5.28;75.33;97766.63;5093395;28;20409;-60
2022/02/21 05:44:32;;;;;;;13.93;2.58;;;;;;;5.27;75.10;97746.66;5093132;28;20052;-60
2022/02/21 05:46:59;;;;;;;11.73;2.72;;;;;;;5.27;75.19;97746.66;5092944;28;20040;-61
2022/02/21 05:49:26;;;;;;;15.88;3.08;;;;;;;5.29;75.09;97754.38;5093518;28;20048;-60
2022/02/21 05:51:53;;;;;;;9.27;2.72;;;;;;;5.29;75.43;97760.44;5091832;28;20047;-61
2022/02/21 05:54:20;;;;;;;15.40;2.95;;;;;;;5.27;74.30;97757.09;5092682;28;20105;-60
2022/02/21 05:56:46;;;;;;;13.88;2.42;;;;;;;5.28;75.08;97742.28;5093238;28;20059;-59
2022/02/21 05:59:13;;;;;;;10.18;2.63;;;;;;;5.30;74.74;97756.06;5092859;28;20052;-62
2022/02/21 06:01:39;;;;;;;9.32;2.55;;;;;;;5.30;74.99;97750.84;5093462;28;20060;-59
2022/02/21 06:04:08;;;;;;;14.18;2.88;;;;;;;5.29;74.53;97762.22;5093056;28;20055;-60
2022/02/21 06:06:35;;;;;;;11.52;2.13;;;;;;;5.30;74.53;97771.69;5092494;28;20093;-60
2022/02/21 06:09:03;;;;;;;10.77;2.42;;;;;;;5.28;74.52;97761.41;5092750;28;20572;-60
2022/02/21 06:11:31;;;;;;;12.05;2.30;;;;;;;5.28;74.93;97758.78;5074418;28;20052;-59
2022/02/21 06:13:58;;;;;;;12.35;2.47;;;;;;;5.26;74.73;97747.59;5091624;28;20511;-63
2022/02/21 06:16:25;;;;;;;11.95;1.92;;;;;;;5.27;75.00;97751.88;5091318;28;20043;-59
2022/02/21 06:18:51;;;;;;;6.30;1.95;;;;;;;5.28;75.02;97753.56;5092468;28;20077;-59
2022/02/21 06:21:18;;;;;;;15.43;2.78;;;;;;;5.26;74.93;97760.66;5092325;28;20117;-60
2022/02/21 06:23:44;;;;;;;10.80;2.30;;;;;;;5.25;74.78;97766.81;5092420;28;20063;-60
2022/02/21 06:26:11;;;;;;;17.70;2.88;;;;;;;5.25;74.84;97759.00;5092227;28;20048;-59
2022/02/21 06:28:38;;;;;;;19.83;3.47;;;;;;;5.27;75.01;97761.50;5091632;28;20056;-59
2022/02/21 06:31:08;;;;;;;13.27;2.55;;;;;;;5.27;74.34;97764.91;5091704;28;20048;-60
2022/02/21 06:33:38;;;;;;;13.05;2.95;;;;;;;5.27;73.34;97771.94;5091608;28;20072;-60
2022/02/21 06:36:06;;;;;;;18.05;3.33;;;;;;;5.27;73.37;97770.13;5090724;28;20044;-59
2022/02/21 06:38:33;;;;;;;17.48;2.85;;;;;;;5.31;74.79;97769.00;5091145;28;20517;-60
2022/02/21 06:40:59;;;;;;;12.63;3.10;;;;;;;5.34;75.05;97774.00;5091246;28;20048;-61
2022/02/21 06:43:27;;;;;;;14.25;3.00;;;;;;;5.37;74.63;97785.16;5092032;28;20093;-60
2022/02/21 06:45:53;;;;;;;12.65;3.10;;;;;;;5.39;74.66;97770.25;5090313;28;20078;-59
2022/02/21 06:48:22;;;;;;;13.07;3.15;;;;;;;5.39;74.14;97778.94;5090728;28;20053;-60
2022/02/21 06:50:49;;;;;;;17.75;2.30;;;;;;;5.43;74.79;97783.00;5090241;28;20044;-59
2022/02/21 06:53:15;;;;;;;19.27;3.38;;;;;;;5.44;74.23;97771.63;5091419;28;20052;-60
2022/02/21 06:55:42;;;;;;;14.95;2.45;;;;;;;5.46;73.93;97779.34;5090856;28;20586;-59
2022/02/21 06:58:11;;;;;;;21.20;3.95;;;;;;;5.47;73.47;97768.78;5091196;28;20063;-61
2022/02/21 07:00:38;;;;;;;16.00;3.58;;;;;;;5.48;73.49;97756.59;5091646;28;20466;-59
2022/02/21 07:03:05;;;;;;;18.02;3.10;;;;;;;5.50;72.94;97783.44;5091763;28;20060;-60
2022/02/21 07:05:31;;;;;;;15.85;3.30;;;;;;;5.50;73.09;97772.13;5091653;28;20494;-62
2022/02/21 07:07:58;;;;;;;15.63;2.50;;;;;;;5.55;73.80;97768.28;5091249;28;20439;-59
2022/02/21 07:10:24;;;;;;;11.88;3.00;;;;;;;5.56;73.40;97777.78;5090504;28;20540;-61
2022/02/21 07:12:51;;;;;;;16.48;2.92;;;;;;;5.61;73.87;97780.91;5090655;28;20404;-60
2022/02/21 07:15:18;;;;;;;18.40;3.05;;;;;;;5.63;73.38;97777.34;5090457;28;20048;-59
2022/02/21 07:17:45;;;;;;;11.95;2.50;;;;;;;5.65;73.04;97775.47;5090935;28;20070;-61
2022/02/21 07:20:12;;;;;;;20.98;3.67;;;;;;;5.65;71.68;97772.88;5089696;28;20052;-59
2022/02/21 07:22:41;;;;;;;20.27;3.25;;;;;;;5.65;71.84;97778.94;5090264;28;20055;-61
2022/02/21 07:25:09;;;;;;;15.25;2.72;;;;;;;5.69;72.56;97775.13;5090670;28;20056;-60
2022/02/21 07:27:41;;;;;;;15.23;2.63;;;;;;;5.68;69.53;97765.66;5090508;28;20070;-59
2022/02/21 07:30:10;;;;;;;15.02;2.88;;;;;;;5.70;71.75;97774.22;5089841;28;20097;-60
2022/02/21 07:32:37;;;;;;;16.95;2.90;;;;;;;5.73;72.11;97776.59;5091266;28;20089;-60
2022/02/21 07:35:04;;;;;;;13.52;2.28;;;;;;;5.75;72.14;97802.59;5091247;28;20051;-62
2022/02/21 07:37:31;;;;;;;15.82;2.60;;;;;;;5.74;71.13;97782.66;5090050;28;20105;-62
2022/02/21 07:39:58;;;;;;;14.45;2.63;;;;;;;5.77;72.40;97784.22;5091135;28;20043;-61
2022/02/21 07:42:25;;;;;;;13.82;2.25;;;;;;;5.81;71.66;97796.13;5089431;28;20526;-62
2022/02/21 07:44:52;;;;;;;14.73;2.95;;;;;;;5.81;71.10;97781.31;5089537;28;20048;-61
2022/02/21 07:47:20;;;;;;;14.43;2.90;;;;;;;5.83;71.15;97795.06;5090972;28;20048;-60
2022/02/21 07:49:47;;;;;;;12.77;2.83;;;;;;;5.82;70.53;97787.34;5089783;28;20051;-60
2022/02/21 07:52:13;;;;;;;17.10;2.60;;;;;;;5.83;71.51;97778.59;5090257;28;20044;-60
2022/02/21 07:54:41;;;;;;;19.48;3.35;;;;;;;5.82;70.37;97797.78;5090607;28;20060;-62
2022/02/21 07:57:08;;;;;;;12.52;2.60;;;;;;;5.84;71.45;97786.28;5090990;28;20059;-62
2022/02/21 07:59:34;;;;;;;13.07;2.83;;;;;;;5.89;72.18;97787.75;5090947;28;20052;-60
2022/02/21 08:02:02;;;;;;;18.17;3.25;;;;;;;5.91;71.05;97793.72;5089026;28;20052;-61
2022/02/21 08:04:29;;;;;;;17.67;3.10;;;;;;;5.92;70.61;97809.28;5090210;28;20059;-61
2022/02/21 08:06:56;;;;;;;10.85;2.58;;;;;;;5.96;71.76;97787.25;5089805;28;20450;-60
2022/02/21 08:09:24;;;;;;;17.48;3.35;;;;;;;5.93;70.04;97795.28;5089238;28;20054;-61
2022/02/21 08:11:51;;;;;;;16.65;3.28;;;;;;;5.98;71.71;97792.38;5090438;28;20044;-60
2022/02/21 08:14:17;;;;;;;13.77;3.35;;;;;;;5.99;71.62;97797.44;5090932;28;20055;-62
2022/02/21 08:16:44;;;;;;;13.35;3.38;;;;;;;6.04;71.93;97786.72;5090539;28;20117;-60
2022/02/21 08:19:11;;;;;;;20.08;3.53;;;;;;;6.05;71.07;97785.78;5090343;28;20052;-62
2022/02/21 08:21:38;;;;;;;18.85;3.47;;;;;;;6.06;71.07;97779.59;5089084;28;20126;-60
2022/02/21 08:24:06;;;;;;;17.58;3.30;;;;;;;6.11;71.22;97794.97;5090335;28;20178;-61
2022/02/21 08:26:33;;;;;;;15.45;3.45;;;;;;;6.13;71.25;97793.91;5090778;28;20508;-62
2022/02/21 08:29:01;;;;;;;14.07;3.22;;;;;;;6.12;70.43;97794.88;5089334;28;20048;-60
2022/02/21 08:31:28;;;;;;;20.98;3.53;;;;;;;6.12;70.85;97784.41;5088892;28;20044;-61
2022/02/21 08:33:55;;;;;;;22.15;3.80;;;;;;;6.17;71.55;97785.88;5090293;28;20105;-61
2022/02/21 08:36:24;;;;;;;14.60;2.63;;;;;;;6.18;70.40;97780.53;5089779;28;20062;-60
2022/02/21 08:38:50;;;;;;;19.90;3.72;;;;;;;6.20;71.11;97777.81;5090286;28;20060;-62
2022/02/21 08:41:17;;;;;;;16.65;3.55;;;;;;;6.25;71.30;97768.69;5089773;28;20040;-60
2022/02/21 08:43:44;;;;;;;13.63;4.20;;;;;;;6.24;68.95;97772.25;5090108;28;20048;-60
2022/02/21 08:46:11;;;;;;;22.38;3.55;;;;;;;6.30;70.91;97770.13;5089827;28;20488;-61
2022/02/21 08:48:58;;;;;;;24.40;3.25;;;;;;;6.29;69.25;97785.00;5089265;28;20052;-60
2022/02/21 08:51:26;;;;;;;22.48;4.20;;;;;;;6.35;70.33;97794.16;5089503;28;20040;-62
2022/02/21 08:53:53;;;;;;;21.48;3.20;;;;;;;6.37;70.21;97764.38;5088655;28;20492;-60
2022/02/21 08:56:19;;;;;;;20.38;3.70;;;;;;;6.44;70.89;97770.00;5089859;28;20462;-60
2022/02/21 08:58:46;;;;;;;17.88;2.83;;;;;;;6.46;69.17;97770.72;5089716;28;20090;-60
2022/02/21 09:01:13;;;;;;;17.60;3.83;;;;;;;6.43;69.22;97765.69;5089750;28;20094;-61
2022/02/21 09:03:41;;;;;;;24.90;3.55;;;;;;;6.46;69.74;97764.63;5088523;28;20574;-61
2022/02/21 09:06:09;;;;;;;14.98;3.17;;;;;;;6.48;69.70;97752.31;5088428;28;20052;-60
2022/02/21 09:08:37;;;;;;;13.23;3.20;;;;;;;6.49;69.60;97769.66;5088523;28;20048;-61
2022/02/21 09:11:04;;;;;;;15.48;2.80;;;;;;;6.51;69.52;97734.63;5088205;28;20047;-61
2022/02/21 09:13:30;;;;;;;21.25;4.53;;;;;;;6.54;68.70;97744.00;5088472;28;20051;-61
2022/02/21 09:15:57;;;;;;;15.80;3.33;;;;;;;6.58;69.66;97740.22;5088846;28;20048;-60
2022/02/21 09:18:24;;;;;;;14.85;3.08;;;;;;;6.60;69.12;97742.72;5090266;28;20048;-61
2022/02/21 09:20:52;;;;;;;13.13;3.38;;;;;;;6.60;69.43;97730.50;5089871;28;20044;-60
2022/02/21 09:23:20;;;;;;;19.83;3.92;;;;;;;6.59;67.36;97709.69;5090030;28;20127;-61
2022/02/21 09:25:47;;;;;;;19.20;2.92;;;;;;;6.63;68.20;97719.84;5089422;28;20101;-60
2022/02/21 09:28:14;;;;;;;19.95;3.50;;;;;;;6.67;69.39;97719.59;5088641;28;20109;-60
2022/02/21 09:30:40;;;;;;;16.05;3.90;;;;;;;6.65;66.99;97701.41;5090193;28;20474;-62
2022/02/21 09:33:07;;;;;;;15.77;2.55;;;;;;;6.68;69.15;97697.72;5089747;28;20044;-62
2022/02/21 09:35:34;;;;;;;16.90;3.20;;;;;;;6.69;68.56;97708.06;5089473;28;20044;-61
2022/02/21 09:38:00;;;;;;;17.85;3.75;;;;;;;6.67;68.33;97702.13;5089602;28;20052;-61
2022/02/21 09:40:28;;;;;;;16.52;3.30;;;;;;;6.69;68.56;97709.88;5089308;28;20056;-62
2022/02/21 09:42:59;;;;;;;17.40;3.47;;;;;;;6.64;68.37;97712.81;5088100;28;20458;-60
2022/02/21 09:45:29;;;;;;;18.98;3.33;;;;;;;6.65;68.11;97719.69;5087814;28;20044;-60
2022/02/21 09:47:57;;;;;;;12.93;3.17;;;;;;;6.64;68.74;97710.19;5090666;28;20055;-60
2022/02/21 09:50:44;;;;;;;21.90;3.75;;;;;;;6.67;69.41;97693.44;5092682;28;20095;-61
2022/02/21 09:53:11;;;;;;;19.65;3.65;;;;;;;6.62;68.31;97689.38;5091564;28;20054;-61
2022/02/21 09:55:39;;;;;;;15.02;4.15;;;;;;;6.58;68.08;97694.97;5091446;28;20113;-60
2022/02/21 09:58:06;;;;;;;13.10;3.17;;;;;;;6.60;69.00;97706.13;5091924;28;20079;-60
2022/02/21 10:00:33;;;;;;;15.35;3.53;;;;;;;6.53;66.17;97702.31;5092854;28;20048;-62
2022/02/21 10:03:00;;;;;;;14.63;3.90;;;;;;;6.47;68.07;97703.59;5093054;28;20083;-59
2022/02/21 10:05:30;;;;;;;15.35;3.08;;;;;;;6.41;67.60;97711.88;5092834;28;20130;-60
2022/02/21 10:07:57;;;;;;;16.55;3.60;;;;;;;6.26;67.83;97732.97;5092748;28;20045;-60
2022/02/21 10:10:25;;;;;;;21.05;4.20;;;;;;;6.18;68.24;97715.22;5092940;28;20081;-60
2022/02/21 10:12:57;;;;;;;20.05;3.13;;;;;;;5.99;68.05;97713.06;5075275;28;20060;-60
2022/02/21 10:15:28;;;;;;;15.50;2.88;;;;;;;5.87;69.28;97702.53;5092468;28;20522;-61
2022/02/21 10:18:18;;;;;;;22.05;4.10;;;;;;;5.66;69.65;97696.22;5091317;28;20044;-59
2022/02/21 10:20:59;;;;;;;16.38;3.10;;;;;;;5.50;70.15;97699.06;5092420;28;20058;-59
2022/02/21 10:23:30;;;;;;;14.80;3.38;;;;;;;5.39;71.24;97699.81;5092770;28;20097;-59
2022/02/21 10:26:06;;;;;;;13.30;3.67;;;;;;;5.22;72.00;97693.97;5092292;28;20048;-62
2022/02/21 10:28:41;;;;;;;21.20;3.67;;;;;;;5.09;72.58;97701.81;5091284;28;20105;-61
2022/02/21 10:31:15;;;;;;;15.55;4.18;;;;;;;4.98;72.94;97704.31;5091197;28;20126;-61
2022/02/21 10:33:59;;;;;;;15.02;3.70;;;;;;;4.86;73.86;97680.72;5092475;28;20419;-59
2022/02/21 10:36:38;;;;;;;10.50;3.15;;;;;;;4.81;74.02;97678.44;5090962;28;20180;-59
2022/02/21 10:39:13;;;;;;;16.45;3.30;;;;;;;4.78;74.42;97676.03;5090983;28;20056;-63
2022/02/21 10:41:46;;;;;;;15.82;3.47;;;;;;;4.77;74.75;97670.91;5090810;28;20052;-61
2022/02/21 10:44:14;;;;;;;;;;;;;;;4.69;74.69;97664.44;5092280;28;20044;-60
2022/02/21 10:46:44;;;;;;;16.92;3.97;;;;;;;4.65;74.93;97657.78;5090291;28;20380;-61
2022/02/21 10:49:11;;;;;;;17.73;3.70;;;;;;;4.62;75.15;97671.00;5091776;28;20048;-59
2022/02/21 10:51:45;;;;;;;11.18;3.45;;;;;;;4.54;75.77;97652.44;5092382;28;20139;-59
2022/02/21 10:54:11;;;;;;;14.43;3.42;;;;;;;4.51;76.18;97653.47;5090888;28;20105;-60
2022/02/21 10:56:45;;;;;;;14.30;3.78;;;;;;;4.44;76.29;97654.81;5089921;28;20047;-62
2022/02/21 10:59:22;;;;;;;12.82;3.67;;;;;;;4.40;76.50;97650.72;5089723;28;20113;-60
2022/02/21 11:01:49;;;;;;;14.90;3.20;;;;;;;4.35;76.70;97656.25;5090301;28;20181;-59
2022/02/21 11:04:15;;;;;;;11.43;3.40;;;;;;;4.32;76.84;97648.63;5091363;28;20051;-60
2022/02/21 11:06:42;;;;;;;10.77;2.58;;;;;;;4.35;77.16;97658.00;5091357;28;20048;-61
2022/02/21 11:09:12;;;;;;;16.20;2.88;;;;;;;4.33;77.34;97659.91;5091229;28;20479;-59
2022/02/21 11:11:47;;;;;;;10.40;3.03;;;;;;;4.32;77.12;97650.41;5090213;28;20557;-59
2022/02/21 11:14:20;;;;;;;8.90;2.28;;;;;;;4.33;77.55;97645.09;5090403;28;20446;-59
2022/02/21 11:16:47;;;;;;;10.50;2.13;;;;;;;4.32;78.07;97664.25;5090464;28;20052;-61
2022/02/21 11:19:16;;;;;;;9.73;2.83;;;;;;;4.36;77.95;97626.66;5090164;28;20051;-58
2022/02/21 11:21:43;;;;;;;15.65;2.40;;;;;;;4.36;78.50;97646.66;5090386;28;20056;-61
2022/02/21 11:24:12;;;;;;;9.52;2.53;;;;;;;4.41;78.45;97613.34;5089845;28;20052;-59
2022/02/21 11:26:49;;;;;;;6.68;2.30;;;;;;;4.46;78.57;97626.91;5090100;28;20059;-61
2022/02/21 11:29:24;;;;;;;9.80;2.83;;;;;;;4.50;78.33;97617.94;5090329;28;20059;-60
2022/02/21 11:31:51;;;;;;;7.95;2.20;;;;;;;4.55;78.67;97599.38;5089892;28;20492;-60
2022/02/21 11:34:17;;;;;;;7.13;2.17;;;;;;;4.59;78.68;97581.78;5091323;28;20047;-60
2022/02/21 11:36:47;;;;;;;13.93;2.20;;;;;;;4.63;78.56;97586.66;5090745;28;20048;-60
2022/02/21 11:39:31;;;;;;;8.45;2.15;;;;;;;4.64;78.43;97587.50;5089454;28;20062;-61